Airport View

Enter ICAO identifier to see the current METAR for that AWOS.

KFNL for example

KLGB 012153Z 18004KT 10SM CLR 26/18 A2987

1 Aug 2014 22:26

Phone: 562-424-0572

Other Area AWOS: KSLI - KTOA - KFUL - KHHR

TAF KLGB 011741Z 0118/0218 18005KT P6SM SKC FM012000 19008KT P6SM SKC FM020200 30010KT P6SM SKC FM020400 VRB03KT P6SM SKC FM020900 VRB03KT P6SM OVC010 FM021430 VRB03KT P6SM BKN200